sensor_id;sensor_type;location;lat;lon;timestamp;pressure;altitude;pressure_sealevel;temperature;humidity
31044;BME280;17710;52.520;13.352;2023-07-16T00:00:51;100381.97;;;28.17;54.39
31044;BME280;17710;52.520;13.352;2023-07-16T00:03:18;100396.38;;;28.26;53.33
31044;BME280;17710;52.520;13.352;2023-07-16T00:05:44;100397.56;;;28.23;54.25
31044;BME280;17710;52.520;13.352;2023-07-16T00:08:11;100393.25;;;28.37;53.41
31044;BME280;17710;52.520;13.352;2023-07-16T00:10:38;100402.56;;;28.42;52.13
31044;BME280;17710;52.520;13.352;2023-07-16T00:13:05;100401.81;;;28.57;52.03
31044;BME280;17710;52.520;13.352;2023-07-16T00:15:31;100401.31;;;28.61;52.91
31044;BME280;17710;52.520;13.352;2023-07-16T00:17:58;100394.16;;;28.60;53.05
31044;BME280;17710;52.520;13.352;2023-07-16T00:20:24;100392.16;;;28.54;53.43
31044;BME280;17710;52.520;13.352;2023-07-16T00:22:50;100384.66;;;28.56;52.35
31044;BME280;17710;52.520;13.352;2023-07-16T00:25:17;100388.75;;;28.60;52.45
31044;BME280;17710;52.520;13.352;2023-07-16T00:27:46;100403.94;;;28.46;54.46
31044;BME280;17710;52.520;13.352;2023-07-16T00:30:12;100400.66;;;28.20;56.53
31044;BME280;17710;52.520;13.352;2023-07-16T00:32:38;100409.97;;;28.26;56.60
31044;BME280;17710;52.520;13.352;2023-07-16T00:35:05;100408.50;;;28.07;58.02
31044;BME280;17710;52.520;13.352;2023-07-16T00:37:33;100397.94;;;28.20;56.32
31044;BME280;17710;52.520;13.352;2023-07-16T00:39:59;100416.66;;;28.15;57.20
31044;BME280;17710;52.520;13.352;2023-07-16T00:42:26;100422.16;;;28.30;56.43
31044;BME280;17710;52.520;13.352;2023-07-16T00:44:54;100428.50;;;28.22;56.53
31044;BME280;17710;52.520;13.352;2023-07-16T00:47:21;100440.91;;;28.08;57.30
31044;BME280;17710;52.520;13.352;2023-07-16T00:49:48;100453.78;;;28.23;56.41
31044;BME280;17710;52.520;13.352;2023-07-16T00:52:18;100469.75;;;28.18;57.04
31044;BME280;17710;52.520;13.352;2023-07-16T00:54:45;100497.78;;;28.18;56.28
31044;BME280;17710;52.520;13.352;2023-07-16T00:57:11;100509.81;;;28.24;54.74
31044;BME280;17710;52.520;13.352;2023-07-16T00:59:38;100523.44;;;28.16;53.93
31044;BME280;17710;52.520;13.352;2023-07-16T01:02:05;100519.16;;;28.05;54.09
31044;BME280;17710;52.520;13.352;2023-07-16T01:04:32;100527.16;;;28.14;53.50
31044;BME280;17710;52.520;13.352;2023-07-16T01:07:01;100550.75;;;28.14;53.52
31044;BME280;17710;52.520;13.352;2023-07-16T01:09:30;100561.44;;;28.07;53.52
31044;BME280;17710;52.520;13.352;2023-07-16T01:11:57;100588.44;;;27.93;53.81
31044;BME280;17710;52.520;13.352;2023-07-16T01:14:26;100612.53;;;27.88;54.57
31044;BME280;17710;52.520;13.352;2023-07-16T01:16:53;100642.75;;;28.01;54.00
31044;BME280;17710;52.520;13.352;2023-07-16T01:19:25;100650.06;;;28.08;54.94
31044;BME280;17710;52.520;13.352;2023-07-16T01:31:35;100703.63;;;27.74;57.12
31044;BME280;17710;52.520;13.352;2023-07-16T01:34:03;100702.78;;;27.73;56.96
31044;BME280;17710;52.520;13.352;2023-07-16T01:36:31;100717.53;;;27.63;57.12
31044;BME280;17710;52.520;13.352;2023-07-16T01:38:59;100702.38;;;27.52;56.59
31044;BME280;17710;52.520;13.352;2023-07-16T01:41:26;100708.13;;;27.49;56.79
31044;BME280;17710;52.520;13.352;2023-07-16T01:43:52;100704.78;;;27.55;56.59
31044;BME280;17710;52.520;13.352;2023-07-16T01:46:18;100702.09;;;27.29;57.35
31044;BME280;17710;52.520;13.352;2023-07-16T01:48:47;100706.22;;;27.42;56.77
31044;BME280;17710;52.520;13.352;2023-07-16T01:51:13;100711.28;;;27.45;56.64
31044;BME280;17710;52.520;13.352;2023-07-16T01:53:40;100694.13;;;27.28;56.58
31044;BME280;17710;52.520;13.352;2023-07-16T01:56:06;100696.69;;;27.29;56.21
31044;BME280;17710;52.520;13.352;2023-07-16T01:58:33;100703.41;;;27.17;56.52
31044;BME280;17710;52.520;13.352;2023-07-16T02:00:59;100711.34;;;27.19;56.46
31044;BME280;17710;52.520;13.352;2023-07-16T02:03:26;100720.38;;;26.93;57.36
31044;BME280;17710;52.520;13.352;2023-07-16T02:05:53;100718.00;;;26.90;57.09
31044;BME280;17710;52.520;13.352;2023-07-16T02:08:20;100715.28;;;26.73;57.62
31044;BME280;17710;52.520;13.352;2023-07-16T02:10:47;100698.53;;;26.95;57.34
31044;BME280;17710;52.520;13.352;2023-07-16T02:13:14;100701.59;;;27.00;56.75
31044;BME280;17710;52.520;13.352;2023-07-16T02:15:40;100688.84;;;26.92;56.92
31044;BME280;17710;52.520;13.352;2023-07-16T02:18:07;100680.13;;;27.07;56.33
31044;BME280;17710;52.520;13.352;2023-07-16T02:20:33;100680.91;;;26.91;56.82
31044;BME280;17710;52.520;13.352;2023-07-16T02:23:01;100695.44;;;26.64;58.92
31044;BME280;17710;52.520;13.352;2023-07-16T02:25:27;100700.94;;;26.54;60.77
31044;BME280;17710;52.520;13.352;2023-07-16T02:27:54;100698.78;;;26.40;62.03
31044;BME280;17710;52.520;13.352;2023-07-16T02:30:21;100700.13;;;26.36;63.14
31044;BME280;17710;52.520;13.352;2023-07-16T02:32:47;100715.84;;;26.33;63.85
31044;BME280;17710;52.520;13.352;2023-07-16T02:35:13;100713.34;;;26.22;64.36
31044;BME280;17710;52.520;13.352;2023-07-16T02:37:40;100699.50;;;26.42;64.55
31044;BME280;17710;52.520;13.352;2023-07-16T02:40:08;100683.84;;;26.54;63.86
31044;BME280;17710;52.520;13.352;2023-07-16T02:42:35;100675.13;;;26.42;63.83
31044;BME280;17710;52.520;13.352;2023-07-16T02:45:01;100677.56;;;26.53;64.77
31044;BME280;17710;52.520;13.352;2023-07-16T02:47:27;100690.53;;;26.68;64.05
31044;BME280;17710;52.520;13.352;2023-07-16T02:49:54;100705.66;;;26.52;65.15
31044;BME280;17710;52.520;13.352;2023-07-16T02:52:20;100703.59;;;26.46;65.86
31044;BME280;17710;52.520;13.352;2023-07-16T02:54:47;100717.06;;;26.56;65.47
31044;BME280;17710;52.520;13.352;2023-07-16T02:57:14;100720.91;;;26.53;65.39
31044;BME280;17710;52.520;13.352;2023-07-16T02:59:41;100706.94;;;26.66;65.90
31044;BME280;17710;52.520;13.352;2023-07-16T03:02:07;100711.06;;;26.52;65.96
31044;BME280;17710;52.520;13.352;2023-07-16T03:04:33;100723.00;;;26.59;65.62
31044;BME280;17710;52.520;13.352;2023-07-16T03:07:00;100710.34;;;26.68;65.20
31044;BME280;17710;52.520;13.352;2023-07-16T03:09:26;100703.59;;;26.72;65.45
31044;BME280;17710;52.520;13.352;2023-07-16T03:11:52;100695.03;;;26.85;65.02
31044;BME280;17710;52.520;13.352;2023-07-16T03:14:20;100686.59;;;26.88;64.43
31044;BME280;17710;52.520;13.352;2023-07-16T03:16:46;100694.81;;;26.70;65.05
31044;BME280;17710;52.520;13.352;2023-07-16T03:19:13;100681.19;;;26.62;66.33
31044;BME280;17710;52.520;13.352;2023-07-16T03:21:39;100682.13;;;26.53;67.53
31044;BME280;17710;52.520;13.352;2023-07-16T03:24:06;100679.91;;;26.48;67.24
31044;BME280;17710;52.520;13.352;2023-07-16T03:26:32;100666.72;;;26.53;67.15
31044;BME280;17710;52.520;13.352;2023-07-16T03:28:58;100663.28;;;26.43;68.22
31044;BME280;17710;52.520;13.352;2023-07-16T03:31:26;100652.38;;;26.35;68.54
31044;BME280;17710;52.520;13.352;2023-07-16T03:33:52;100683.81;;;26.28;69.43
31044;BME280;17710;52.520;13.352;2023-07-16T03:36:19;100693.00;;;26.00;70.96
31044;BME280;17710;52.520;13.352;2023-07-16T03:38:45;100700.75;;;26.30;69.24
31044;BME280;17710;52.520;13.352;2023-07-16T03:41:11;100690.66;;;26.23;69.56
31044;BME280;17710;52.520;13.352;2023-07-16T03:43:38;100657.06;;;26.51;67.37
31044;BME280;17710;52.520;13.352;2023-07-16T03:46:04;100669.25;;;26.29;67.25
31044;BME280;17710;52.520;13.352;2023-07-16T03:48:34;100695.72;;;26.35;67.34
31044;BME280;17710;52.520;13.352;2023-07-16T03:51:00;100703.38;;;26.40;67.37
31044;BME280;17710;52.520;13.352;2023-07-16T03:53:26;100694.38;;;26.57;66.47
31044;BME280;17710;52.520;13.352;2023-07-16T03:55:53;100699.34;;;26.44;66.60
31044;BME280;17710;52.520;13.352;2023-07-16T03:58:19;100699.66;;;26.41;66.47
31044;BME280;17710;52.520;13.352;2023-07-16T04:00:46;100695.22;;;26.22;66.92
31044;BME280;17710;52.520;13.352;2023-07-16T04:03:12;100707.78;;;26.23;66.83
31044;BME280;17710;52.520;13.352;2023-07-16T04:05:40;100714.38;;;26.38;66.28
31044;BME280;17710;52.520;13.352;2023-07-16T04:08:06;100711.72;;;26.46;66.07
31044;BME280;17710;52.520;13.352;2023-07-16T04:10:33;100709.13;;;26.37;65.64
31044;BME280;17710;52.520;13.352;2023-07-16T04:13:00;100698.50;;;26.26;65.78
31044;BME280;17710;52.520;13.352;2023-07-16T04:15:26;100692.16;;;26.17;66.14
31044;BME280;17710;52.520;13.352;2023-07-16T04:17:52;100678.13;;;26.22;65.99
31044;BME280;17710;52.520;13.352;2023-07-16T04:20:19;100678.63;;;26.35;65.34
31044;BME280;17710;52.520;13.352;2023-07-16T04:22:47;100696.25;;;26.39;65.15
31044;BME280;17710;52.520;13.352;2023-07-16T04:25:13;100703.59;;;26.46;65.03
31044;BME280;17710;52.520;13.352;2023-07-16T04:27:41;100710.72;;;26.47;65.23
31044;BME280;17710;52.520;13.352;2023-07-16T04:30:09;100721.56;;;26.30;65.70
31044;BME280;17710;52.520;13.352;2023-07-16T04:32:36;100723.91;;;26.25;65.91
31044;BME280;17710;52.520;13.352;2023-07-16T04:35:02;100719.09;;;26.36;65.88
31044;BME280;17710;52.520;13.352;2023-07-16T04:37:29;100722.88;;;26.26;65.85
31044;BME280;17710;52.520;13.352;2023-07-16T04:39:56;100728.53;;;26.32;65.47
31044;BME280;17710;52.520;13.352;2023-07-16T04:42:23;100720.56;;;26.31;65.26
31044;BME280;17710;52.520;13.352;2023-07-16T04:44:49;100715.81;;;26.15;66.00
31044;BME280;17710;52.520;13.352;2023-07-16T04:47:15;100717.47;;;26.26;65.00
31044;BME280;17710;52.520;13.352;2023-07-16T04:49:42;100726.25;;;26.45;64.43
31044;BME280;17710;52.520;13.352;2023-07-16T04:52:08;100735.16;;;26.20;65.38
31044;BME280;17710;52.520;13.352;2023-07-16T04:54:35;100751.72;;;26.17;65.20
31044;BME280;17710;52.520;13.352;2023-07-16T04:57:06;100763.19;;;26.11;65.72
31044;BME280;17710;52.520;13.352;2023-07-16T04:59:32;100759.47;;;26.12;65.21
31044;BME280;17710;52.520;13.352;2023-07-16T05:01:59;100757.78;;;26.29;65.12
31044;BME280;17710;52.520;13.352;2023-07-16T05:04:25;100768.56;;;26.38;64.53
31044;BME280;17710;52.520;13.352;2023-07-16T05:06:51;100793.59;;;26.23;65.15
31044;BME280;17710;52.520;13.352;2023-07-16T05:09:18;100802.25;;;26.08;65.67
31044;BME280;17710;52.520;13.352;2023-07-16T05:11:45;100794.25;;;26.34;65.29
31044;BME280;17710;52.520;13.352;2023-07-16T05:14:13;100798.78;;;26.16;65.35
31044;BME280;17710;52.520;13.352;2023-07-16T05:16:39;100801.34;;;26.17;64.93
31044;BME280;17710;52.520;13.352;2023-07-16T05:19:06;100805.66;;;26.10;65.60
31044;BME280;17710;52.520;13.352;2023-07-16T05:21:32;100798.41;;;26.29;65.01
31044;BME280;17710;52.520;13.352;2023-07-16T05:23:58;100781.06;;;26.39;64.53
31044;BME280;17710;52.520;13.352;2023-07-16T05:26:25;100785.53;;;26.66;64.31
31044;BME280;17710;52.520;13.352;2023-07-16T05:28:51;100792.09;;;26.99;62.46
31044;BME280;17710;52.520;13.352;2023-07-16T05:31:19;100783.94;;;27.17;61.37
31044;BME280;17710;52.520;13.352;2023-07-16T05:33:45;100789.97;;;27.36;60.50
31044;BME280;17710;52.520;13.352;2023-07-16T05:36:11;100796.66;;;27.24;60.99
31044;BME280;17710;52.520;13.352;2023-07-16T05:38:38;100795.22;;;27.12;61.01
31044;BME280;17710;52.520;13.352;2023-07-16T05:41:04;100794.91;;;26.72;62.69
31044;BME280;17710;52.520;13.352;2023-07-16T05:43:31;100801.97;;;26.65;62.66
31044;BME280;17710;52.520;13.352;2023-07-16T05:45:58;100802.59;;;26.58;63.04
31044;BME280;17710;52.520;13.352;2023-07-16T05:48:25;100807.94;;;26.50;63.39
31044;BME280;17710;52.520;13.352;2023-07-16T05:50:52;100810.22;;;26.81;62.82
31044;BME280;17710;52.520;13.352;2023-07-16T05:53:17;100804.50;;;26.66;62.90
31044;BME280;17710;52.520;13.352;2023-07-16T05:55:44;100804.38;;;26.68;63.26
31044;BME280;17710;52.520;13.352;2023-07-16T05:58:10;100809.09;;;26.66;63.44
31044;BME280;17710;52.520;13.352;2023-07-16T06:00:36;100809.78;;;27.03;62.45
31044;BME280;17710;52.520;13.352;2023-07-16T06:03:03;100803.78;;;27.25;61.47
31044;BME280;17710;52.520;13.352;2023-07-16T06:05:31;100802.50;;;27.37;61.24
31044;BME280;17710;52.520;13.352;2023-07-16T06:07:59;100808.38;;;26.99;61.92
31044;BME280;17710;52.520;13.352;2023-07-16T06:10:26;100813.13;;;26.97;62.19
31044;BME280;17710;52.520;13.352;2023-07-16T06:12:53;100811.25;;;27.23;61.28
31044;BME280;17710;52.520;13.352;2023-07-16T06:15:20;100820.19;;;27.42;60.92
31044;BME280;17710;52.520;13.352;2023-07-16T06:17:46;100810.47;;;27.65;59.62
31044;BME280;17710;52.520;13.352;2023-07-16T06:20:12;100818.16;;;27.69;59.76
31044;BME280;17710;52.520;13.352;2023-07-16T06:22:40;100817.53;;;27.92;59.07
31044;BME280;17710;52.520;13.352;2023-07-16T06:25:07;100819.81;;;28.12;58.56
31044;BME280;17710;52.520;13.352;2023-07-16T06:27:35;100825.31;;;28.37;58.09
31044;BME280;17710;52.520;13.352;2023-07-16T06:30:02;100811.88;;;28.19;57.64
31044;BME280;17710;52.520;13.352;2023-07-16T06:32:31;100815.63;;;28.26;58.00
31044;BME280;17710;52.520;13.352;2023-07-16T06:34:57;100815.91;;;28.07;57.67
31044;BME280;17710;52.520;13.352;2023-07-16T06:37:23;100820.88;;;28.20;57.69
31044;BME280;17710;52.520;13.352;2023-07-16T06:39:52;100827.34;;;28.27;57.17
31044;BME280;17710;52.520;13.352;2023-07-16T06:42:18;100835.53;;;28.43;56.89
31044;BME280;17710;52.520;13.352;2023-07-16T06:44:44;100825.38;;;28.61;55.88
31044;BME280;17710;52.520;13.352;2023-07-16T06:47:11;100826.75;;;29.06;54.55
31044;BME280;17710;52.520;13.352;2023-07-16T06:49:37;100831.88;;;29.01;54.14
31044;BME280;17710;52.520;13.352;2023-07-16T06:52:04;100840.84;;;29.34;52.77
31044;BME280;17710;52.520;13.352;2023-07-16T06:54:31;100841.34;;;29.37;52.55
31044;BME280;17710;52.520;13.352;2023-07-16T06:56:58;100833.16;;;29.53;52.04
31044;BME280;17710;52.520;13.352;2023-07-16T06:59:25;100844.56;;;29.88;50.71
31044;BME280;17710;52.520;13.352;2023-07-16T07:01:51;100852.91;;;29.39;51.85
31044;BME280;17710;52.520;13.352;2023-07-16T07:04:18;100850.84;;;29.41;51.23
31044;BME280;17710;52.520;13.352;2023-07-16T07:06:44;100855.97;;;29.36;51.45
31044;BME280;17710;52.520;13.352;2023-07-16T07:09:10;100860.31;;;29.61;51.24
31044;BME280;17710;52.520;13.352;2023-07-16T07:11:37;100863.63;;;29.88;50.35
31044;BME280;17710;52.520;13.352;2023-07-16T07:14:04;100853.53;;;30.13;50.14
31044;BME280;17710;52.520;13.352;2023-07-16T07:16:31;100857.03;;;29.82;49.74
31044;BME280;17710;52.520;13.352;2023-07-16T07:18:57;100853.59;;;29.09;51.48
31044;BME280;17710;52.520;13.352;2023-07-16T07:21:24;100860.41;;;28.97;52.50
31044;BME280;17710;52.520;13.352;2023-07-16T07:23:50;100864.84;;;29.14;51.96
31044;BME280;17710;52.520;13.352;2023-07-16T07:26:16;100868.00;;;29.58;50.80
31044;BME280;17710;52.520;13.352;2023-07-16T07:28:43;100882.19;;;29.21;51.42
31044;BME280;17710;52.520;13.352;2023-07-16T07:31:11;100867.69;;;29.45;50.91
31044;BME280;17710;52.520;13.352;2023-07-16T07:33:37;100874.47;;;29.65;50.50
31044;BME280;17710;52.520;13.352;2023-07-16T07:36:04;100886.00;;;30.22;49.02
31044;BME280;17710;52.520;13.352;2023-07-16T07:38:30;100885.84;;;30.16;48.32
31044;BME280;17710;52.520;13.352;2023-07-16T07:40:57;100878.13;;;29.96;48.34
31044;BME280;17710;52.520;13.352;2023-07-16T07:43:23;100885.91;;;29.52;48.41
31044;BME280;17710;52.520;13.352;2023-07-16T07:45:50;100894.41;;;29.09;49.79
31044;BME280;17710;52.520;13.352;2023-07-16T07:48:17;100888.75;;;28.70;50.93
31044;BME280;17710;52.520;13.352;2023-07-16T07:50:46;100892.69;;;29.16;49.83
31044;BME280;17710;52.520;13.352;2023-07-16T07:53:12;100894.41;;;29.33;48.69
31044;BME280;17710;52.520;13.352;2023-07-16T07:55:40;100893.38;;;29.50;48.15
31044;BME280;17710;52.520;13.352;2023-07-16T07:58:07;100894.63;;;29.95;47.03
31044;BME280;17710;52.520;13.352;2023-07-16T08:00:34;100898.91;;;30.28;44.99
31044;BME280;17710;52.520;13.352;2023-07-16T08:03:00;100911.25;;;30.08;44.99
31044;BME280;17710;52.520;13.352;2023-07-16T08:05:28;100897.44;;;30.18;44.30
31044;BME280;17710;52.520;13.352;2023-07-16T08:07:54;100910.84;;;30.27;44.03
31044;BME280;17710;52.520;13.352;2023-07-16T08:10:21;100902.47;;;29.98;44.56
31044;BME280;17710;52.520;13.352;2023-07-16T08:12:48;100904.56;;;29.63;45.33
31044;BME280;17710;52.520;13.352;2023-07-16T08:15:14;100905.13;;;29.10;46.35
31044;BME280;17710;52.520;13.352;2023-07-16T08:17:41;100906.81;;;29.03;46.19
31044;BME280;17710;52.520;13.352;2023-07-16T08:20:08;100918.56;;;29.20;45.29
31044;BME280;17710;52.520;13.352;2023-07-16T08:22:36;100919.41;;;29.12;44.12
31044;BME280;17710;52.520;13.352;2023-07-16T08:25:03;100921.97;;;29.38;43.13
31044;BME280;17710;52.520;13.352;2023-07-16T08:27:30;100918.38;;;29.54;42.46
31044;BME280;17710;52.520;13.352;2023-07-16T08:29:57;100911.78;;;29.40;42.50
31044;BME280;17710;52.520;13.352;2023-07-16T08:32:24;100918.00;;;29.73;41.77
31044;BME280;17710;52.520;13.352;2023-07-16T08:34:50;100921.22;;;29.85;40.92
31044;BME280;17710;52.520;13.352;2023-07-16T08:37:16;100920.50;;;29.99;39.97
31044;BME280;17710;52.520;13.352;2023-07-16T08:39:44;100928.72;;;30.30;39.91
31044;BME280;17710;52.520;13.352;2023-07-16T08:42:11;100934.78;;;30.09;38.72
31044;BME280;17710;52.520;13.352;2023-07-16T08:44:37;100935.66;;;29.93;39.14
31044;BME280;17710;52.520;13.352;2023-07-16T08:47:05;100938.50;;;30.16;39.01
31044;BME280;17710;52.520;13.352;2023-07-16T08:49:34;100939.06;;;30.42;37.87
31044;BME280;17710;52.520;13.352;2023-07-16T08:52:01;100936.16;;;30.05;38.99
31044;BME280;17710;52.520;13.352;2023-07-16T08:54:28;100933.72;;;30.18;38.55
31044;BME280;17710;52.520;13.352;2023-07-16T08:56:57;100939.47;;;30.23;38.31
31044;BME280;17710;52.520;13.352;2023-07-16T08:59:24;100929.94;;;29.72;39.08
31044;BME280;17710;52.520;13.352;2023-07-16T09:01:52;100943.00;;;29.93;39.14
31044;BME280;17710;52.520;13.352;2023-07-16T09:04:19;100941.56;;;30.13;37.64
31044;BME280;17710;52.520;13.352;2023-07-16T09:06:45;100935.72;;;30.63;36.17
31044;BME280;17710;52.520;13.352;2023-07-16T09:09:19;100948.31;;;29.70;37.46
31044;BME280;17710;52.520;13.352;2023-07-16T09:11:46;100947.66;;;29.60;38.12
31044;BME280;17710;52.520;13.352;2023-07-16T09:14:16;100956.00;;;29.58;38.68
31044;BME280;17710;52.520;13.352;2023-07-16T09:16:43;100953.53;;;30.04;38.04
31044;BME280;17710;52.520;13.352;2023-07-16T09:19:09;100952.44;;;30.21;38.00
31044;BME280;17710;52.520;13.352;2023-07-16T09:21:38;100958.66;;;29.99;38.06
31044;BME280;17710;52.520;13.352;2023-07-16T09:24:06;100969.72;;;30.05;38.66
31044;BME280;17710;52.520;13.352;2023-07-16T09:26:36;100957.97;;;29.89;37.48
31044;BME280;17710;52.520;13.352;2023-07-16T09:29:05;100960.16;;;30.09;36.80
31044;BME280;17710;52.520;13.352;2023-07-16T09:31:33;100955.41;;;30.42;36.74
31044;BME280;17710;52.520;13.352;2023-07-16T09:33:59;100947.94;;;30.98;35.54
31044;BME280;17710;52.520;13.352;2023-07-16T09:36:26;100943.47;;;31.05;35.19
31044;BME280;17710;52.520;13.352;2023-07-16T09:38:53;100952.13;;;31.32;34.64
31044;BME280;17710;52.520;13.352;2023-07-16T09:41:20;100957.69;;;31.38;34.16
31044;BME280;17710;52.520;13.352;2023-07-16T09:43:47;100954.50;;;31.72;33.68
31044;BME280;17710;52.520;13.352;2023-07-16T09:46:14;100944.72;;;31.40;33.10
31044;BME280;17710;52.520;13.352;2023-07-16T09:48:42;100952.81;;;30.80;34.17
31044;BME280;17710;52.520;13.352;2023-07-16T09:51:11;100953.88;;;30.40;35.23
31044;BME280;17710;52.520;13.352;2023-07-16T09:53:40;100957.97;;;30.52;34.79
31044;BME280;17710;52.520;13.352;2023-07-16T09:56:09;100958.41;;;30.86;33.95
31044;BME280;17710;52.520;13.352;2023-07-16T09:58:38;100952.47;;;30.83;33.61
31044;BME280;17710;52.520;13.352;2023-07-16T10:01:05;100971.94;;;31.11;33.07
31044;BME280;17710;52.520;13.352;2023-07-16T10:03:32;100965.47;;;30.50;35.01
31044;BME280;17710;52.520;13.352;2023-07-16T10:06:07;100964.59;;;30.41;34.08
31044;BME280;17710;52.520;13.352;2023-07-16T10:08:34;100965.84;;;30.31;34.26
31044;BME280;17710;52.520;13.352;2023-07-16T10:11:00;100970.16;;;30.17;34.71
31044;BME280;17710;52.520;13.352;2023-07-16T10:13:27;100958.53;;;30.31;34.54
31044;BME280;17710;52.520;13.352;2023-07-16T10:15:56;100968.22;;;30.34;35.01
31044;BME280;17710;52.520;13.352;2023-07-16T10:18:24;100957.47;;;31.02;34.26
31044;BME280;17710;52.520;13.352;2023-07-16T10:20:52;100956.59;;;31.70;33.19
31044;BME280;17710;52.520;13.352;2023-07-16T10:23:20;100963.09;;;31.98;32.39
31044;BME280;17710;52.520;13.352;2023-07-16T10:25:58;100948.13;;;31.94;32.92
31044;BME280;17710;52.520;13.352;2023-07-16T10:28:25;100949.41;;;31.69;33.23
31044;BME280;17710;52.520;13.352;2023-07-16T10:30:51;100955.84;;;31.53;33.14
31044;BME280;17710;52.520;13.352;2023-07-16T10:33:18;100949.94;;;31.27;33.73
31044;BME280;17710;52.520;13.352;2023-07-16T10:35:45;100965.03;;;31.38;33.29
31044;BME280;17710;52.520;13.352;2023-07-16T10:38:12;100957.00;;;31.21;33.35
31044;BME280;17710;52.520;13.352;2023-07-16T10:40:41;100967.22;;;31.05;34.11
31044;BME280;17710;52.520;13.352;2023-07-16T10:43:08;100966.59;;;31.17;34.20
31044;BME280;17710;52.520;13.352;2023-07-16T10:45:34;100962.34;;;31.15;34.48
31044;BME280;17710;52.520;13.352;2023-07-16T10:48:01;100969.22;;;31.25;34.11
31044;BME280;17710;52.520;13.352;2023-07-16T10:50:27;100978.25;;;30.41;33.90
31044;BME280;17710;52.520;13.352;2023-07-16T10:52:55;100973.09;;;30.46;35.00
31044;BME280;17710;52.520;13.352;2023-07-16T10:55:22;100973.66;;;30.73;34.66
31044;BME280;17710;52.520;13.352;2023-07-16T10:57:50;100963.38;;;30.83;34.41
31044;BME280;17710;52.520;13.352;2023-07-16T11:00:18;100972.06;;;31.17;34.04
31044;BME280;17710;52.520;13.352;2023-07-16T11:02:44;100964.69;;;31.41;33.44
31044;BME280;17710;52.520;13.352;2023-07-16T11:05:12;100971.94;;;31.86;33.13
31044;BME280;17710;52.520;13.352;2023-07-16T11:07:42;100980.81;;;31.88;32.42
31044;BME280;17710;52.520;13.352;2023-07-16T11:10:09;100974.28;;;32.03;32.55
31044;BME280;17710;52.520;13.352;2023-07-16T11:12:35;100965.25;;;32.47;31.66
31044;BME280;17710;52.520;13.352;2023-07-16T11:15:04;100972.34;;;32.41;31.26
31044;BME280;17710;52.520;13.352;2023-07-16T11:17:30;100964.59;;;32.01;31.99
31044;BME280;17710;52.520;13.352;2023-07-16T11:19:59;100969.72;;;32.19;31.72
31044;BME280;17710;52.520;13.352;2023-07-16T11:22:26;100967.06;;;31.96;31.56
31044;BME280;17710;52.520;13.352;2023-07-16T11:24:53;100967.59;;;31.91;32.45
31044;BME280;17710;52.520;13.352;2023-07-16T11:27:22;100969.78;;;31.81;32.59
31044;BME280;17710;52.520;13.352;2023-07-16T11:29:50;100970.66;;;31.96;32.71
31044;BME280;17710;52.520;13.352;2023-07-16T11:32:29;100975.81;;;31.77;33.17
31044;BME280;17710;52.520;13.352;2023-07-16T11:34:56;100966.66;;;31.99;33.36
31044;BME280;17710;52.520;13.352;2023-07-16T11:37:24;100966.97;;;32.19;33.60
31044;BME280;17710;52.520;13.352;2023-07-16T11:39:51;100972.22;;;32.05;33.48
31044;BME280;17710;52.520;13.352;2023-07-16T11:42:23;100968.94;;;31.95;33.64
31044;BME280;17710;52.520;13.352;2023-07-16T11:44:50;100965.47;;;32.31;32.95
31044;BME280;17710;52.520;13.352;2023-07-16T11:47:17;100956.09;;;32.55;32.86
31044;BME280;17710;52.520;13.352;2023-07-16T11:49:45;100957.69;;;33.00;31.84
31044;BME280;17710;52.520;13.352;2023-07-16T11:52:11;100958.53;;;33.00;31.84
31044;BME280;17710;52.520;13.352;2023-07-16T11:54:38;100964.25;;;32.84;29.26
31044;BME280;17710;52.520;13.352;2023-07-16T11:57:04;100951.59;;;32.32;30.05
31044;BME280;17710;52.520;13.352;2023-07-16T11:59:31;100958.28;;;31.48;28.67
31044;BME280;17710;52.520;13.352;2023-07-16T12:01:57;100962.31;;;31.60;28.03
31044;BME280;17710;52.520;13.352;2023-07-16T12:04:25;100964.69;;;31.78;28.78
31044;BME280;17710;52.520;13.352;2023-07-16T12:06:53;100962.06;;;31.99;27.80
31044;BME280;17710;52.520;13.352;2023-07-16T12:09:20;100963.25;;;31.67;28.16
31044;BME280;17710;52.520;13.352;2023-07-16T12:11:46;100952.34;;;31.67;28.09
31044;BME280;17710;52.520;13.352;2023-07-16T12:14:12;100966.09;;;31.37;26.24
31044;BME280;17710;52.520;13.352;2023-07-16T12:16:39;100970.19;;;31.55;25.59
31044;BME280;17710;52.520;13.352;2023-07-16T12:19:08;100963.25;;;31.67;25.40
31044;BME280;17710;52.520;13.352;2023-07-16T12:21:35;100969.88;;;31.88;25.29
31044;BME280;17710;52.520;13.352;2023-07-16T12:24:03;100973.06;;;31.91;25.02
31044;BME280;17710;52.520;13.352;2023-07-16T12:26:30;100974.09;;;31.90;25.44
31044;BME280;17710;52.520;13.352;2023-07-16T12:28:57;100974.59;;;32.09;24.96
31044;BME280;17710;52.520;13.352;2023-07-16T12:31:23;100983.31;;;31.60;25.33
31044;BME280;17710;52.520;13.352;2023-07-16T12:33:49;100984.00;;;31.54;24.83
31044;BME280;17710;52.520;13.352;2023-07-16T12:36:16;100986.84;;;32.13;25.06
31044;BME280;17710;52.520;13.352;2023-07-16T12:38:42;100971.78;;;32.17;23.74
31044;BME280;17710;52.520;13.352;2023-07-16T12:41:10;100978.28;;;32.30;23.51
31044;BME280;17710;52.520;13.352;2023-07-16T12:43:36;100972.81;;;32.30;22.99
31044;BME280;17710;52.520;13.352;2023-07-16T12:46:05;100983.44;;;32.11;22.91
31044;BME280;17710;52.520;13.352;2023-07-16T12:48:31;100975.38;;;32.17;22.99